This is the latest recevied weather packets stored in our database for station/object KE8DDT-7. If no packets are shown the sender has not sent any weather packets the latest 10 day(s).
| Time | Temp. | Humidity | Pressure | Rain* | Wind** | Luminosity | Snow |
|---|---|---|---|---|---|---|---|
| 1777837013 | 16.67° C | 44% | 1002.2 hPa | 0 mm | - | 216 W/m² | - |
| 1777836713 | 16.67° C | 42% | 1002.1 hPa | 0 mm | - | 221 W/m² | - |
| 1777836413 | 16.67° C | 41% | 1002.3 hPa | 0 mm | - | 186 W/m² | - |
| 1777836113 | 16.67° C | 40% | 1002.3 hPa | 0 mm | - | 214 W/m² | - |
| 1777835813 | 16.67° C | 43% | 1002.4 hPa | 0 mm | - | 193 W/m² | - |
| 1777835513 | 16.11° C | 42% | 1002.5 hPa | 0 mm | - | 267 W/m² | - |
| 1777835134 | 16.11° C | 42% | 1002.6 hPa | 0 mm | - | 236 W/m² | - |
| 1777834834 | 16.67° C | 41% | 1002.6 hPa | 0 mm | - | 243 W/m² | - |
| 1777834534 | 16.67° C | 40% | 1002.6 hPa | 0 mm | - | 1002 W/m² | - |
| 1777834234 | 16.11° C | 41% | 1002.7 hPa | 0 mm | - | 942 W/m² | - |
| 1777833935 | 16.11° C | 42% | 1002.8 hPa | 0 mm | - | 947 W/m² | - |
| 1777833616 | 16.67° C | 40% | 1002.8 hPa | 0 mm | - | 993 W/m² | - |
| 1777833271 | 16.67° C | 40% | 1002.9 hPa | 0 mm | - | 974 W/m² | - |
| 1777832924 | 16.11° C | 40% | 1002.9 hPa | 0 mm | - | 977 W/m² | - |
| 1777832565 | 16.11° C | 39% | 1003 hPa | 0 mm | - | 206 W/m² | - |
| 1777832046 | 16.67° C | 39% | 1003.2 hPa | 0 mm | - | 306 W/m² | - |
| 1777831746 | 16.67° C | 40% | 1003.1 hPa | 0 mm | - | 1067 W/m² | - |
| 1777831446 | 16.67° C | 41% | 1003.2 hPa | 0 mm | - | 1104 W/m² | - |
| 1777831146 | 16.67° C | 39% | 1003.5 hPa | 0 mm | - | 371 W/m² | - |
| 1777830846 | 16.67° C | 43% | 1003.4 hPa | 0 mm | - | 1030 W/m² | - |
| 1777830546 | 16.67° C | 42% | 1003.5 hPa | 0 mm | - | 1067 W/m² | - |
| 1777830247 | 16.11° C | 43% | 1003.5 hPa | 0 mm | - | 1020 W/m² | - |
| 1777829646 | 15.56° C | 44% | 1003.6 hPa | 0 mm | - | 970 W/m² | - |
| 1777829346 | 15.56° C | 46% | 1003.6 hPa | 0 mm | - | 977 W/m² | - |
| 1777829046 | 15° C | 46% | 1003.8 hPa | 0 mm | - | 995 W/m² | - |
* Rain latest hour (hover to see other rain measurements)
** Current wind speed in m/s (hover to see current wind gust speed)